createdAt,value
2019-03-21T00:02:19.522Z,10.40
2019-03-21T00:04:52.682Z,10.40
2019-03-21T00:07:22.463Z,10.40
2019-03-21T00:10:12.618Z,10.40
2019-03-21T00:12:42.389Z,10.40
2019-03-21T00:15:17.264Z,10.40
2019-03-21T00:17:51.494Z,10.40
2019-03-21T00:20:21.307Z,10.40
2019-03-21T00:22:51.094Z,10.40
2019-03-21T00:25:22.726Z,10.40
2019-03-21T00:27:52.702Z,10.40
2019-03-21T00:30:23.509Z,10.40
2019-03-21T00:32:53.731Z,10.40
2019-03-21T00:35:23.564Z,10.40
2019-03-21T00:37:53.414Z,10.40
2019-03-21T00:40:26.001Z,10.40
2019-03-21T00:42:55.933Z,10.40
2019-03-21T00:45:25.735Z,10.40
2019-03-21T00:47:55.592Z,10.40
2019-03-21T00:50:25.908Z,10.40
2019-03-21T00:52:56.077Z,10.40
2019-03-21T00:55:26.625Z,10.40
2019-03-21T00:57:58.526Z,10.40
2019-03-21T01:00:34.765Z,10.40
2019-03-21T01:03:04.553Z,10.40
2019-03-21T01:05:34.311Z,10.40
2019-03-21T01:08:04.127Z,10.40
2019-03-21T01:10:33.865Z,10.40
2019-03-21T01:13:03.659Z,10.40
2019-03-21T01:15:33.506Z,10.40
2019-03-21T01:18:03.379Z,10.40
2019-03-21T01:20:33.182Z,10.40
2019-03-21T01:23:02.999Z,10.40
2019-03-21T01:25:36.343Z,10.40
2019-03-21T01:28:06.171Z,10.40
2019-03-21T01:30:35.881Z,10.40
2019-03-21T01:33:05.762Z,10.30
2019-03-21T01:35:35.610Z,10.30
2019-03-21T01:38:05.442Z,10.30
2019-03-21T01:40:36.192Z,10.30
2019-03-21T01:43:06.050Z,10.40
2019-03-21T01:45:35.819Z,10.40
2019-03-21T01:48:05.803Z,10.30
2019-03-21T01:50:36.127Z,10.30
2019-03-21T01:53:06.037Z,10.30
2019-03-21T01:55:35.826Z,10.30
2019-03-21T01:58:05.719Z,10.30
2019-03-21T02:00:37.901Z,10.30
2019-03-21T02:03:07.741Z,10.30
2019-03-21T02:05:37.584Z,10.30
2019-03-21T02:08:07.397Z,10.30
2019-03-21T02:10:37.528Z,10.30
2019-03-21T02:13:07.333Z,10.30
2019-03-21T02:15:37.122Z,10.30
2019-03-21T02:18:07.059Z,10.30
2019-03-21T02:20:36.856Z,10.30
2019-03-21T02:23:06.641Z,10.30
2019-03-21T02:25:36.458Z,10.30
2019-03-21T02:28:06.593Z,10.30
2019-03-21T02:30:37.495Z,10.30
2019-03-21T02:33:17.497Z,10.30
2019-03-21T02:35:47.297Z,10.30
2019-03-21T02:38:17.166Z,10.30
2019-03-21T02:40:47.036Z,10.30
2019-03-21T02:43:17.015Z,10.30
2019-03-21T02:45:46.800Z,10.30
2019-03-21T02:48:16.848Z,10.30
2019-03-21T02:50:46.731Z,10.40
2019-03-21T02:53:16.511Z,10.40
2019-03-21T02:55:46.345Z,10.50
2019-03-21T02:58:16.187Z,10.40
2019-03-21T03:00:45.890Z,10.30
2019-03-21T03:03:15.710Z,10.20
2019-03-21T03:05:45.520Z,10.10
2019-03-21T03:08:15.324Z,10.00
2019-03-21T03:10:47.524Z,10.00
2019-03-21T03:13:17.367Z,9.90
2019-03-21T03:15:47.218Z,9.80
2019-03-21T03:18:17.242Z,9.80
2019-03-21T03:20:47.088Z,9.80
2019-03-21T03:23:16.869Z,9.70
2019-03-21T03:25:46.643Z,9.80
2019-03-21T03:28:19.361Z,9.80
2019-03-21T03:30:49.668Z,9.80
2019-03-21T03:33:19.473Z,9.80
2019-03-21T03:35:49.740Z,9.80
2019-03-21T03:38:19.575Z,9.80
2019-03-21T03:40:52.508Z,9.90
2019-03-21T03:43:22.307Z,9.90
2019-03-21T03:45:52.080Z,9.90
2019-03-21T03:48:21.786Z,9.90
2019-03-21T03:50:51.508Z,9.90
2019-03-21T03:53:21.687Z,9.90
2019-03-21T03:55:51.910Z,9.90
2019-03-21T03:58:22.661Z,9.90
2019-03-21T04:00:52.555Z,9.90
2019-03-21T04:03:22.406Z,9.90
2019-03-21T04:05:52.275Z,9.90
2019-03-21T04:08:22.048Z,9.90
2019-03-21T04:10:51.954Z,9.90
2019-03-21T04:13:22.038Z,9.90
2019-03-21T04:15:53.809Z,9.90
2019-03-21T04:18:23.457Z,9.90
2019-03-21T04:20:53.637Z,9.90
2019-03-21T04:23:23.475Z,10.00
2019-03-21T04:25:59.685Z,10.00
2019-03-21T04:28:29.635Z,10.00
2019-03-21T04:30:59.544Z,9.90
2019-03-21T04:33:29.398Z,9.90
2019-03-21T04:35:59.091Z,9.90
2019-03-21T04:38:29.195Z,9.90
2019-03-21T04:40:59.039Z,9.80
2019-03-21T04:43:28.903Z,9.80
2019-03-21T04:46:03.333Z,9.80
2019-03-21T04:48:30.376Z,9.80
2019-03-21T04:51:00.160Z,9.80
2019-03-21T04:53:29.961Z,9.80
2019-03-21T04:55:59.907Z,9.70
2019-03-21T04:58:29.728Z,9.60
2019-03-21T05:00:59.638Z,9.70
2019-03-21T05:03:29.809Z,9.70
2019-03-21T05:05:59.791Z,9.70
2019-03-21T05:08:38.500Z,9.70
2019-03-21T05:11:08.406Z,9.80
2019-03-21T05:13:38.206Z,9.80
2019-03-21T05:16:26.835Z,9.80
2019-03-21T05:18:57.577Z,9.80
2019-03-21T05:21:27.590Z,9.90
2019-03-21T05:23:57.398Z,9.90
2019-03-21T05:26:27.172Z,9.90
2019-03-21T05:28:56.947Z,9.80
2019-03-21T05:31:30.327Z,9.80
2019-03-21T05:34:00.270Z,9.80
2019-03-21T05:36:30.130Z,9.70
2019-03-21T05:38:59.954Z,9.70
2019-03-21T05:41:29.747Z,9.80
2019-03-21T05:44:03.571Z,9.90
2019-03-21T05:46:33.874Z,9.90
2019-03-21T05:49:03.678Z,9.80
2019-03-21T05:51:33.450Z,9.80
2019-03-21T05:54:03.268Z,9.80
2019-03-21T05:56:33.244Z,9.80
2019-03-21T05:59:03.163Z,9.80
2019-03-21T06:01:32.953Z,9.80
2019-03-21T06:04:02.789Z,9.80
2019-03-21T06:06:47.456Z,9.80
2019-03-21T06:09:19.756Z,9.80
2019-03-21T06:11:53.519Z,9.70
2019-03-21T06:14:23.768Z,9.70
2019-03-21T06:16:53.586Z,9.70
2019-03-21T06:19:35.265Z,9.70
2019-03-21T06:22:41.701Z,9.60
2019-03-21T06:25:44.541Z,9.60
2019-03-21T06:28:14.516Z,9.60
2019-03-21T06:30:44.370Z,9.60
2019-03-21T06:33:14.182Z,9.60
2019-03-21T06:35:43.962Z,9.60
2019-03-21T06:38:13.776Z,9.60
2019-03-21T06:40:43.588Z,9.60
2019-03-21T06:43:13.383Z,9.70
2019-03-21T06:45:47.851Z,9.70
2019-03-21T06:48:14.783Z,9.60
2019-03-21T06:50:44.576Z,9.70
2019-03-21T06:53:14.370Z,9.70
2019-03-21T06:55:44.192Z,9.70
2019-03-21T06:58:13.962Z,9.70
2019-03-21T07:00:43.748Z,9.70
2019-03-21T07:03:16.193Z,9.70
2019-03-21T07:05:45.093Z,9.70
2019-03-21T07:08:14.906Z,9.70
2019-03-21T07:10:44.719Z,9.80
2019-03-21T07:13:14.532Z,9.80
2019-03-21T07:15:44.678Z,9.80
2019-03-21T07:18:14.430Z,9.90
2019-03-21T07:20:44.254Z,9.90
2019-03-21T07:23:14.066Z,9.90
2019-03-21T07:25:43.903Z,10.00
2019-03-21T07:28:13.811Z,10.10
2019-03-21T07:30:43.693Z,10.10
2019-03-21T07:33:13.618Z,10.20
2019-03-21T07:35:43.350Z,10.30
2019-03-21T07:38:13.242Z,10.50
2019-03-21T07:40:43.058Z,10.80
2019-03-21T07:43:13.070Z,10.80
2019-03-21T07:45:42.862Z,10.80
2019-03-21T07:48:12.733Z,10.80
2019-03-21T07:50:42.812Z,10.80
2019-03-21T07:53:12.695Z,10.90
2019-03-21T07:55:42.513Z,10.90
2019-03-21T07:58:12.315Z,10.90
2019-03-21T08:00:42.157Z,11.10
2019-03-21T08:03:12.082Z,11.10
2019-03-21T08:05:41.914Z,11.20
2019-03-21T08:08:11.702Z,11.20
2019-03-21T08:10:41.510Z,11.20
2019-03-21T08:13:11.328Z,11.20
2019-03-21T08:15:41.112Z,11.40
2019-03-21T08:18:10.939Z,11.50
2019-03-21T08:20:40.794Z,11.70
2019-03-21T08:23:10.573Z,11.80
2019-03-21T08:25:40.381Z,11.70
2019-03-21T08:28:10.172Z,11.70
2019-03-21T08:31:15.354Z,11.90
2019-03-21T08:34:03.996Z,12.00
2019-03-21T08:36:33.878Z,12.10
2019-03-21T08:39:05.318Z,12.30
2019-03-21T08:41:35.262Z,12.20
2019-03-21T08:44:05.039Z,12.10
2019-03-21T08:46:35.245Z,12.40
2019-03-21T08:49:05.130Z,12.70
2019-03-21T08:51:35.014Z,12.40
2019-03-21T08:54:06.665Z,12.20
2019-03-21T08:56:36.545Z,12.40
2019-03-21T08:59:06.631Z,12.30
2019-03-21T09:01:36.435Z,12.20
2019-03-21T09:04:06.382Z,12.00
2019-03-21T09:06:36.297Z,12.10
2019-03-21T09:09:09.283Z,12.20
2019-03-21T09:11:39.355Z,12.10
2019-03-21T09:14:09.504Z,12.10
2019-03-21T09:16:39.246Z,12.20
2019-03-21T09:19:09.143Z,12.60
2019-03-21T09:21:38.971Z,12.40
2019-03-21T09:24:08.814Z,12.20
2019-03-21T09:26:38.542Z,12.20
2019-03-21T09:29:08.358Z,12.10
2019-03-21T09:31:38.199Z,11.90
2019-03-21T09:34:08.283Z,11.90
2019-03-21T09:36:38.254Z,11.80
2019-03-21T09:39:08.862Z,12.10
2019-03-21T09:41:38.663Z,12.10
2019-03-21T09:44:08.743Z,12.10
2019-03-21T09:46:50.102Z,12.30
2019-03-21T09:49:10.199Z,12.40
2019-03-21T09:51:40.221Z,12.40
2019-03-21T09:54:10.135Z,12.40
2019-03-21T09:56:41.680Z,12.40
2019-03-21T09:59:11.560Z,12.50
2019-03-21T10:01:41.455Z,12.50
2019-03-21T10:04:30.144Z,12.50
2019-03-21T10:07:00.058Z,12.30
2019-03-21T10:09:29.844Z,12.20
2019-03-21T10:11:59.656Z,12.20
2019-03-21T10:14:29.434Z,12.30
2019-03-21T10:16:59.207Z,12.40
2019-03-21T10:19:29.003Z,12.40
2019-03-21T10:21:58.889Z,12.20
2019-03-21T10:24:47.995Z,12.20
2019-03-21T10:27:17.815Z,12.10
2019-03-21T10:29:47.688Z,12.40
2019-03-21T10:32:17.502Z,12.60
2019-03-21T10:34:47.362Z,12.80
2019-03-21T10:37:17.260Z,12.80
2019-03-21T10:39:47.793Z,12.90
2019-03-21T10:42:17.646Z,12.90
2019-03-21T10:44:47.446Z,12.70
2019-03-21T10:47:17.291Z,12.70
2019-03-21T10:49:47.277Z,12.60
2019-03-21T10:52:17.048Z,12.40
2019-03-21T10:54:46.837Z,12.40
2019-03-21T10:57:16.672Z,12.40
2019-03-21T10:59:46.464Z,12.40
2019-03-21T11:02:16.253Z,12.30
2019-03-21T11:04:46.187Z,12.40
2019-03-21T11:07:13.889Z,12.30
2019-03-21T11:09:43.654Z,12.50
2019-03-21T11:12:16.110Z,12.60
2019-03-21T11:14:48.516Z,12.80
2019-03-21T11:17:20.989Z,12.90
2019-03-21T11:19:50.818Z,12.90
2019-03-21T11:22:20.597Z,12.80
2019-03-21T11:24:50.410Z,12.90
2019-03-21T11:27:20.382Z,13.10
2019-03-21T11:29:50.457Z,13.20
2019-03-21T11:32:20.507Z,13.40
2019-03-21T11:34:50.538Z,13.10
2019-03-21T11:37:20.380Z,12.90
2019-03-21T11:39:50.207Z,12.90
2019-03-21T11:42:20.018Z,13.00
2019-03-21T11:44:49.978Z,13.10
2019-03-21T11:47:20.050Z,13.00
2019-03-21T11:49:49.904Z,13.00
2019-03-21T11:52:19.956Z,12.90
2019-03-21T11:54:49.757Z,13.00
2019-03-21T11:57:19.530Z,12.90
2019-03-21T11:59:51.829Z,12.70
2019-03-21T12:02:27.066Z,12.70
2019-03-21T12:04:52.626Z,12.80
2019-03-21T12:07:22.503Z,12.80
2019-03-21T12:09:52.294Z,13.00
2019-03-21T12:12:22.121Z,13.10
2019-03-21T12:14:51.943Z,13.00
2019-03-21T12:17:21.825Z,13.00
2019-03-21T12:19:51.660Z,13.00
2019-03-21T12:22:29.886Z,13.10
2019-03-21T12:24:52.993Z,13.00
2019-03-21T12:27:22.800Z,13.00
2019-03-21T12:29:52.679Z,12.80
2019-03-21T12:32:22.604Z,12.80
2019-03-21T12:34:52.446Z,12.80
2019-03-21T12:37:22.259Z,12.80
2019-03-21T12:39:52.180Z,13.00
2019-03-21T12:42:21.986Z,13.00
2019-03-21T12:44:51.806Z,12.90
2019-03-21T12:47:30.840Z,12.90
2019-03-21T12:49:53.179Z,13.00
2019-03-21T12:52:22.985Z,13.00
2019-03-21T12:54:52.859Z,12.90
2019-03-21T12:57:22.694Z,13.00
2019-03-21T12:59:52.473Z,12.90
2019-03-21T13:02:31.956Z,12.90
2019-03-21T13:04:53.914Z,13.00
2019-03-21T13:07:24.138Z,13.20
2019-03-21T13:09:53.970Z,13.00
2019-03-21T13:12:23.800Z,13.00
2019-03-21T13:14:53.686Z,12.90
2019-03-21T13:17:23.508Z,13.00
2019-03-21T13:19:53.386Z,12.90
2019-03-21T13:22:23.232Z,12.90
2019-03-21T13:24:54.963Z,13.10
2019-03-21T13:27:24.858Z,13.10
2019-03-21T13:29:54.650Z,13.20
2019-03-21T13:32:24.485Z,13.20
2019-03-21T13:34:59.780Z,13.30
2019-03-21T13:37:32.189Z,13.30
2019-03-21T13:40:01.039Z,13.40
2019-03-21T13:42:30.913Z,13.60
2019-03-21T13:45:00.759Z,13.70
2019-03-21T13:47:30.702Z,13.70
2019-03-21T13:50:00.549Z,13.50
2019-03-21T13:52:30.389Z,13.30
2019-03-21T13:55:00.482Z,13.30
2019-03-21T13:57:30.273Z,13.40
2019-03-21T14:00:00.407Z,13.20
2019-03-21T14:02:30.304Z,13.30
2019-03-21T14:05:00.257Z,13.40
2019-03-21T14:07:30.494Z,13.30
2019-03-21T14:10:00.357Z,13.00
2019-03-21T14:12:30.155Z,13.00
2019-03-21T14:14:59.965Z,13.00
2019-03-21T14:17:29.750Z,13.10
2019-03-21T14:19:59.687Z,13.50
2019-03-21T14:22:29.517Z,13.70
2019-03-21T14:24:59.345Z,13.70
2019-03-21T14:27:29.186Z,13.70
2019-03-21T14:30:01.470Z,13.80
2019-03-21T14:32:30.528Z,13.40
2019-03-21T14:35:00.397Z,13.30
2019-03-21T14:37:30.288Z,13.30
2019-03-21T14:40:00.076Z,13.20
2019-03-21T14:42:29.995Z,13.50
2019-03-21T14:45:00.005Z,13.60
2019-03-21T14:47:36.021Z,13.60
2019-03-21T14:50:01.363Z,13.40
2019-03-21T14:52:31.239Z,13.30
2019-03-21T14:55:01.031Z,13.10
2019-03-21T14:57:30.876Z,13.00
2019-03-21T15:00:00.755Z,13.20
2019-03-21T15:02:30.587Z,13.30
2019-03-21T15:05:00.464Z,13.40
2019-03-21T15:07:30.366Z,13.20
2019-03-21T15:10:00.379Z,13.00
2019-03-21T15:12:33.200Z,12.90
2019-03-21T15:15:03.037Z,12.70
2019-03-21T15:17:32.871Z,12.70
2019-03-21T15:20:02.692Z,12.60
2019-03-21T15:22:32.502Z,12.80
2019-03-21T15:25:02.583Z,12.90
2019-03-21T15:27:32.425Z,13.00
2019-03-21T15:30:02.262Z,12.70
2019-03-21T15:32:32.096Z,12.40
2019-03-21T15:35:01.845Z,12.20
2019-03-21T15:37:31.690Z,12.20
2019-03-21T15:40:01.616Z,12.30
2019-03-21T15:42:31.478Z,12.20
2019-03-21T15:45:15.750Z,12.10
2019-03-21T15:47:33.082Z,12.10
2019-03-21T15:50:03.000Z,12.10
2019-03-21T15:52:32.879Z,12.00
2019-03-21T15:55:03.060Z,11.90
2019-03-21T15:57:32.880Z,11.80
2019-03-21T16:00:02.773Z,11.80
2019-03-21T16:02:32.699Z,11.80
2019-03-21T16:05:02.512Z,11.70
2019-03-21T16:07:32.325Z,11.90
2019-03-21T16:10:02.280Z,11.70
2019-03-21T16:12:32.449Z,11.70
2019-03-21T16:15:02.261Z,11.60
2019-03-21T16:17:32.171Z,11.80
2019-03-21T16:20:01.963Z,11.60
2019-03-21T16:22:32.456Z,11.60
2019-03-21T16:25:02.391Z,11.80
2019-03-21T16:27:32.131Z,11.60
2019-03-21T16:30:01.864Z,11.30
2019-03-21T16:32:31.838Z,11.50
2019-03-21T16:35:01.714Z,11.70
2019-03-21T16:37:31.541Z,11.60
2019-03-21T16:40:01.395Z,11.70
2019-03-21T16:42:31.480Z,11.70
2019-03-21T16:45:01.409Z,12.20
2019-03-21T16:47:31.430Z,11.80
2019-03-21T16:50:01.321Z,11.60
2019-03-21T16:52:31.101Z,11.30
2019-03-21T16:55:01.072Z,11.20
2019-03-21T16:57:30.913Z,11.10
2019-03-21T17:00:00.994Z,11.40
2019-03-21T17:02:31.173Z,11.20
2019-03-21T17:05:01.164Z,11.00
2019-03-21T17:07:31.226Z,11.00
2019-03-21T17:10:01.261Z,11.00
2019-03-21T17:12:31.214Z,11.10
2019-03-21T17:15:01.167Z,11.10
2019-03-21T17:17:31.001Z,11.20
2019-03-21T17:20:03.621Z,11.20
2019-03-21T17:22:32.279Z,11.10
2019-03-21T17:25:02.247Z,10.80
2019-03-21T17:27:32.097Z,10.70
2019-03-21T17:30:02.165Z,10.70
2019-03-21T17:32:32.107Z,10.60
2019-03-21T17:35:01.951Z,10.60
2019-03-21T17:37:31.755Z,10.50
2019-03-21T17:40:01.555Z,10.50
2019-03-21T17:42:31.480Z,10.50
2019-03-21T17:45:01.649Z,10.50
2019-03-21T17:47:31.581Z,10.40
2019-03-21T17:50:01.397Z,10.40
2019-03-21T17:52:31.306Z,10.50
2019-03-21T17:55:01.222Z,10.50
2019-03-21T17:57:34.708Z,10.40
2019-03-21T18:00:02.822Z,10.40
2019-03-21T18:02:32.954Z,10.40
2019-03-21T18:05:04.773Z,10.30
2019-03-21T18:07:35.065Z,10.30
2019-03-21T18:10:05.888Z,10.30
2019-03-21T18:12:35.724Z,10.20
2019-03-21T18:15:06.553Z,10.20
2019-03-21T18:17:36.467Z,10.20
2019-03-21T18:20:07.047Z,10.10
2019-03-21T18:22:36.931Z,10.10
2019-03-21T18:25:07.752Z,10.10
2019-03-21T18:27:37.615Z,10.10
2019-03-21T18:30:08.565Z,10.10
2019-03-21T18:32:38.393Z,10.10
2019-03-21T18:35:09.095Z,10.10
2019-03-21T18:37:39.042Z,10.00
2019-03-21T18:40:10.326Z,10.00
2019-03-21T18:42:40.355Z,10.00
2019-03-21T18:45:10.991Z,10.10
2019-03-21T18:47:40.840Z,10.00
2019-03-21T18:50:11.632Z,10.00
2019-03-21T18:52:41.795Z,10.00
2019-03-21T18:55:12.268Z,9.90
2019-03-21T18:57:42.098Z,9.90
2019-03-21T19:00:13.038Z,9.90
2019-03-21T19:02:42.851Z,9.80
2019-03-21T19:05:12.846Z,9.90
2019-03-21T19:07:42.729Z,9.80
2019-03-21T19:10:13.254Z,10.00
2019-03-21T19:12:43.243Z,9.90
2019-03-21T19:15:13.158Z,9.80
2019-03-21T19:17:42.965Z,9.80
2019-03-21T19:20:13.175Z,9.80
2019-03-21T19:22:42.992Z,9.80
2019-03-21T19:25:18.629Z,9.80
2019-03-21T19:27:44.951Z,9.80
2019-03-21T19:30:15.239Z,9.70
2019-03-21T19:32:45.042Z,9.70
2019-03-21T19:35:16.598Z,9.70
2019-03-21T19:37:46.522Z,9.70
2019-03-21T19:40:16.823Z,9.70
2019-03-21T19:42:46.635Z,9.70
2019-03-21T19:45:16.627Z,9.70
2019-03-21T19:47:46.456Z,9.70
2019-03-21T19:50:17.103Z,9.70
2019-03-21T19:52:46.962Z,9.70
2019-03-21T19:55:25.915Z,9.70
2019-03-21T19:57:48.859Z,9.70
2019-03-21T20:00:19.752Z,9.70
2019-03-21T20:02:49.787Z,9.70
2019-03-21T20:05:20.043Z,9.70
2019-03-21T20:07:50.079Z,9.70
2019-03-21T20:10:20.317Z,9.60
2019-03-21T20:12:50.828Z,9.60
2019-03-21T20:15:21.198Z,9.60
2019-03-21T20:17:50.974Z,9.60
2019-03-21T20:20:20.825Z,9.60
2019-03-21T20:22:50.921Z,9.60
2019-03-21T20:25:20.815Z,9.60
2019-03-21T20:27:50.666Z,9.50
2019-03-21T20:30:20.464Z,9.60
2019-03-21T20:32:50.304Z,9.60
2019-03-21T20:35:20.408Z,9.60
2019-03-21T20:37:50.182Z,9.50
2019-03-21T20:40:20.339Z,9.60
2019-03-21T20:42:50.264Z,9.60
2019-03-21T20:45:20.692Z,9.50
2019-03-21T20:47:50.559Z,9.50
2019-03-21T20:50:20.746Z,9.50
2019-03-21T20:52:50.542Z,9.60
2019-03-21T20:55:20.416Z,9.60
2019-03-21T20:57:50.318Z,9.60
2019-03-21T21:00:21.367Z,9.60
2019-03-21T21:02:53.274Z,9.50
2019-03-21T21:05:23.599Z,9.50
2019-03-21T21:07:54.093Z,9.50
2019-03-21T21:10:23.889Z,9.50
2019-03-21T21:12:53.873Z,9.50
2019-03-21T21:15:23.586Z,9.50
2019-03-21T21:17:53.404Z,9.50
2019-03-21T21:20:23.201Z,9.50
2019-03-21T21:22:53.034Z,9.60
2019-03-21T21:25:22.889Z,9.60
2019-03-21T21:27:53.028Z,9.50
2019-03-21T21:30:24.216Z,9.50
2019-03-21T21:32:54.090Z,9.50
2019-03-21T21:35:23.938Z,9.50
2019-03-21T21:37:53.757Z,9.40
2019-03-21T21:40:23.811Z,9.50
2019-03-21T21:42:53.572Z,9.40
2019-03-21T21:45:23.449Z,9.50
2019-03-21T21:47:53.219Z,9.50
2019-03-21T21:50:23.183Z,9.40
2019-03-21T21:52:53.159Z,9.50
2019-03-21T21:55:22.993Z,9.40
2019-03-21T21:57:52.919Z,9.40
2019-03-21T22:00:23.039Z,9.40
2019-03-21T22:02:52.878Z,9.40
2019-03-21T22:05:22.750Z,9.30
2019-03-21T22:07:52.600Z,9.40
2019-03-21T22:10:22.502Z,9.40
2019-03-21T22:12:52.425Z,9.40
2019-03-21T22:15:22.269Z,9.40
2019-03-21T22:17:52.099Z,9.40
2019-03-21T22:20:21.924Z,9.50
2019-03-21T22:22:51.734Z,9.40
2019-03-21T22:25:21.583Z,9.40
2019-03-21T22:27:51.418Z,9.30
2019-03-21T22:30:22.533Z,9.30
2019-03-21T22:32:52.416Z,9.30
2019-03-21T22:35:22.245Z,9.30
2019-03-21T22:37:52.204Z,9.20
2019-03-21T22:40:21.991Z,9.20
2019-03-21T22:42:51.806Z,9.20
2019-03-21T22:45:21.600Z,9.20
2019-03-21T22:47:51.404Z,9.20
2019-03-21T22:50:21.209Z,9.20
2019-03-21T22:52:51.015Z,9.20
2019-03-21T22:55:20.796Z,9.30
2019-03-21T22:57:50.597Z,9.20
2019-03-21T23:00:22.358Z,9.20
2019-03-21T23:02:52.216Z,9.20
2019-03-21T23:05:22.395Z,9.20
2019-03-21T23:07:52.250Z,9.20
2019-03-21T23:10:21.971Z,9.20
2019-03-21T23:12:51.780Z,9.20
2019-03-21T23:15:21.656Z,9.20
2019-03-21T23:17:51.505Z,9.20
2019-03-21T23:20:21.369Z,9.20
2019-03-21T23:22:51.174Z,9.20
2019-03-21T23:25:20.985Z,9.20
2019-03-21T23:27:50.818Z,9.20
2019-03-21T23:30:20.625Z,9.20
2019-03-21T23:32:50.426Z,9.20
2019-03-21T23:35:20.271Z,9.20
2019-03-21T23:37:50.163Z,9.20
2019-03-21T23:40:19.909Z,9.20
2019-03-21T23:42:49.685Z,9.20
2019-03-21T23:45:20.141Z,9.20
2019-03-21T23:47:50.098Z,9.20
2019-03-21T23:50:19.900Z,9.20
2019-03-21T23:52:49.713Z,9.20
2019-03-21T23:55:19.493Z,9.20
2019-03-21T23:57:49.295Z,9.20
